createdAt,value
2023-04-03T00:00:49.084Z,77052.91
2023-04-03T00:03:18.344Z,77054.94
2023-04-03T00:05:46.435Z,77052.91
2023-04-03T00:08:14.400Z,77050.84
2023-04-03T00:10:42.227Z,77056.97
2023-04-03T00:13:11.213Z,77061.06
2023-04-03T00:15:39.457Z,77059.00
2023-04-03T00:18:07.911Z,77052.91
2023-04-03T00:20:37.968Z,77048.81
2023-04-03T00:23:06.037Z,77042.69
2023-04-03T00:25:34.060Z,77040.66
2023-04-03T00:28:01.861Z,77052.91
2023-04-03T00:30:29.673Z,77052.91
2023-04-03T00:32:57.544Z,77061.06
2023-04-03T00:35:25.777Z,77048.81
2023-04-03T00:37:56.995Z,77052.91
2023-04-03T00:40:26.426Z,77059.00
2023-04-03T00:42:58.620Z,77054.94
2023-04-03T00:45:34.347Z,77054.94
2023-04-03T00:48:04.367Z,77061.06
2023-04-03T00:50:32.425Z,77069.22
2023-04-03T00:53:02.375Z,77063.09
2023-04-03T00:55:31.570Z,77069.22
2023-04-03T00:58:00.228Z,77073.28
2023-04-03T01:00:28.708Z,77073.28
2023-04-03T01:02:56.641Z,77075.31
2023-04-03T01:05:24.778Z,77075.31
2023-04-03T01:07:54.419Z,77073.28
2023-04-03T01:10:24.196Z,77071.25
2023-04-03T01:12:52.543Z,77077.38
2023-04-03T01:15:23.830Z,77081.44
2023-04-03T01:17:53.614Z,77081.44
2023-04-03T01:20:58.197Z,77083.50
2023-04-03T01:23:48.076Z,77079.41
2023-04-03T01:26:17.578Z,77079.41
2023-04-03T01:28:45.487Z,77085.53
2023-04-03T01:31:21.140Z,77089.59
2023-04-03T01:33:50.841Z,77087.56
2023-04-03T01:36:21.620Z,77091.66
2023-04-03T01:38:49.681Z,77087.56
2023-04-03T01:41:18.603Z,77091.66
2023-04-03T01:43:46.430Z,77085.53
2023-04-03T01:46:14.503Z,77091.66
2023-04-03T01:48:42.459Z,77087.56
2023-04-03T01:51:12.228Z,77089.59
2023-04-03T01:53:40.386Z,77083.50
2023-04-03T01:56:08.582Z,77077.38
2023-04-03T01:58:36.707Z,77077.38
2023-04-03T02:01:04.768Z,77081.44
2023-04-03T02:03:32.921Z,77085.53
2023-04-03T02:06:00.949Z,77085.53
2023-04-03T02:08:30.318Z,77081.44
2023-04-03T02:10:58.170Z,77083.50
2023-04-03T02:13:25.911Z,77079.41
2023-04-03T02:15:53.702Z,77079.41
2023-04-03T02:18:22.257Z,77069.22
2023-04-03T02:20:50.025Z,77073.28
2023-04-03T02:23:17.938Z,77085.53
2023-04-03T02:25:47.007Z,77081.44
2023-04-03T02:28:14.750Z,77077.38
2023-04-03T02:30:42.702Z,77073.28
2023-04-03T02:33:10.480Z,77073.28
2023-04-03T02:35:38.909Z,77077.38
2023-04-03T02:38:06.751Z,77073.28
2023-04-03T02:40:34.526Z,77077.38
2023-04-03T02:43:03.754Z,77073.28
2023-04-03T02:45:31.567Z,77077.38
2023-04-03T02:47:59.366Z,77081.44
2023-04-03T02:50:27.211Z,77081.44
2023-04-03T02:52:55.021Z,77085.53
2023-04-03T02:55:22.800Z,77089.59
2023-04-03T02:57:50.570Z,77089.59
2023-04-03T03:00:20.831Z,77089.59
2023-04-03T03:02:48.631Z,77089.59
2023-04-03T03:05:17.102Z,77089.59
2023-04-03T03:07:44.971Z,77093.69
2023-04-03T03:10:12.783Z,77091.66
2023-04-03T03:12:41.499Z,77091.66
2023-04-03T03:15:09.964Z,77095.72
2023-04-03T03:17:39.104Z,77097.75
2023-04-03T03:20:08.412Z,77095.72
2023-04-03T03:22:36.724Z,77099.81
2023-04-03T03:25:05.097Z,77097.75
2023-04-03T03:27:32.804Z,77093.69
2023-04-03T03:30:00.751Z,77097.75
2023-04-03T03:32:28.545Z,77099.81
2023-04-03T03:34:57.638Z,77097.75
2023-04-03T03:37:25.458Z,77105.91
2023-04-03T03:39:53.209Z,77114.06
2023-04-03T03:42:20.939Z,77105.91
2023-04-03T03:44:48.728Z,77101.84
2023-04-03T03:47:16.643Z,77103.88
2023-04-03T03:49:44.462Z,77101.84
2023-04-03T03:52:13.616Z,77101.84
2023-04-03T03:54:41.410Z,77101.84
2023-04-03T03:57:09.211Z,77093.69
2023-04-03T03:59:37.051Z,77099.81
2023-04-03T04:02:04.830Z,77101.84
2023-04-03T04:04:32.583Z,77105.91
2023-04-03T04:07:01.443Z,77097.75
2023-04-03T04:09:30.739Z,77097.75
2023-04-03T04:11:58.876Z,77093.69
2023-04-03T04:14:27.547Z,77097.75
2023-04-03T04:16:55.418Z,77099.81
2023-04-03T04:19:23.179Z,77097.75
2023-04-03T04:21:51.742Z,77097.75
2023-04-03T04:24:19.598Z,77089.59
2023-04-03T04:26:48.686Z,77083.50
2023-04-03T04:29:16.577Z,77081.44
2023-04-03T04:31:44.335Z,77081.44
2023-04-03T04:34:13.839Z,77073.28
2023-04-03T04:36:42.000Z,77073.28
2023-04-03T04:39:09.920Z,77081.44
2023-04-03T04:41:37.683Z,77069.22
2023-04-03T04:44:06.836Z,77081.44
2023-04-03T04:46:34.715Z,77085.53
2023-04-03T04:49:02.540Z,77085.53
2023-04-03T04:51:35.184Z,77093.69
2023-04-03T04:54:09.129Z,77099.81
2023-04-03T04:56:36.943Z,77101.84
2023-04-03T04:59:06.359Z,77097.75
2023-04-03T05:01:34.193Z,77097.75
2023-04-03T05:04:02.550Z,77103.88
2023-04-03T05:06:31.160Z,77105.91
2023-04-03T05:08:58.912Z,77112.03
2023-04-03T05:11:26.838Z,77116.13
2023-04-03T05:13:54.613Z,77105.91
2023-04-03T05:16:23.910Z,77110.00
2023-04-03T05:18:51.884Z,77110.00
2023-04-03T05:21:20.026Z,77112.03
2023-04-03T05:23:47.808Z,77105.91
2023-04-03T05:26:15.666Z,77107.97
2023-04-03T05:28:43.402Z,77101.84
2023-04-03T05:31:11.216Z,77089.59
2023-04-03T05:33:40.444Z,77091.66
2023-04-03T05:36:09.132Z,77081.44
2023-04-03T05:38:37.198Z,77105.91
2023-04-03T05:41:05.203Z,77093.69
2023-04-03T05:43:33.714Z,77089.59
2023-04-03T05:46:01.493Z,77085.53
2023-04-03T05:48:29.403Z,77075.31
2023-04-03T05:50:58.642Z,77077.38
2023-04-03T05:53:30.246Z,77073.28
2023-04-03T05:55:58.036Z,77073.28
2023-04-03T05:58:25.828Z,77073.28
2023-04-03T06:00:53.798Z,77054.94
2023-04-03T06:03:21.787Z,77061.06
2023-04-03T06:05:49.717Z,77061.06
2023-04-03T06:08:18.794Z,77065.13
2023-04-03T06:10:46.647Z,77073.28
2023-04-03T06:13:14.723Z,77061.06
2023-04-03T06:15:42.502Z,77056.97
2023-04-03T06:18:10.909Z,77048.81
2023-04-03T06:20:38.853Z,77052.91
2023-04-03T06:23:08.482Z,77054.94
2023-04-03T06:25:37.824Z,77052.91
2023-04-03T06:28:05.597Z,77069.22
2023-04-03T06:30:33.427Z,77061.06
2023-04-03T06:33:01.786Z,77061.06
2023-04-03T06:35:31.324Z,77048.81
2023-04-03T06:37:59.374Z,77034.53
2023-04-03T06:40:28.176Z,77020.25
2023-04-03T06:42:57.289Z,77032.50
2023-04-03T06:45:26.539Z,77018.22
2023-04-03T06:47:54.462Z,77026.38
2023-04-03T06:50:22.280Z,77010.06
2023-04-03T06:52:50.026Z,77024.34
2023-04-03T06:55:17.821Z,77024.34
2023-04-03T06:57:45.580Z,77024.34
2023-04-03T07:00:17.263Z,77038.63
2023-04-03T07:02:45.131Z,77028.41
2023-04-03T07:05:13.161Z,77022.31
2023-04-03T07:07:42.139Z,77012.09
2023-04-03T07:10:11.200Z,76995.78
2023-04-03T07:12:39.605Z,76983.56
2023-04-03T07:15:09.256Z,76973.38
2023-04-03T07:17:38.989Z,76975.41
2023-04-03T07:20:08.211Z,76987.63
2023-04-03T07:22:36.096Z,76993.75
2023-04-03T07:25:04.253Z,76993.75
2023-04-03T07:27:32.044Z,76975.41
2023-04-03T07:29:59.815Z,76979.47
2023-04-03T07:32:27.621Z,76973.38
2023-04-03T07:34:56.816Z,76940.72
2023-04-03T07:37:24.598Z,76967.25
2023-04-03T07:39:52.431Z,76977.44
2023-04-03T07:42:20.203Z,76981.53
2023-04-03T07:44:48.448Z,76983.56
2023-04-03T07:47:18.231Z,76971.31
2023-04-03T07:49:45.996Z,76991.72
2023-04-03T07:52:15.758Z,76997.84
2023-04-03T07:54:43.853Z,76952.97
2023-04-03T07:57:11.682Z,76963.16
2023-04-03T07:59:40.598Z,76948.88
2023-04-03T08:02:11.404Z,76955.00
2023-04-03T08:04:39.317Z,76950.94
2023-04-03T08:07:07.584Z,76950.94
2023-04-03T08:09:36.716Z,76940.72
2023-04-03T08:12:04.605Z,76926.47
2023-04-03T08:14:35.338Z,76936.66
2023-04-03T08:17:05.469Z,76922.38
2023-04-03T08:19:33.543Z,76924.41
2023-04-03T08:22:03.840Z,76912.19
2023-04-03T08:24:32.090Z,76938.69
2023-04-03T08:27:01.330Z,76910.16
2023-04-03T08:29:29.707Z,76938.69
2023-04-03T08:31:57.556Z,76938.69
2023-04-03T08:34:25.336Z,76934.63
2023-04-03T08:36:53.146Z,76930.53
2023-04-03T08:39:20.973Z,76910.16
2023-04-03T08:41:49.168Z,76899.94
2023-04-03T08:44:26.847Z,76881.59
2023-04-03T08:47:04.593Z,76885.66
2023-04-03T08:49:35.718Z,76893.81
2023-04-03T08:52:10.692Z,76897.91
2023-04-03T08:54:50.059Z,76877.50
2023-04-03T08:57:19.473Z,76899.94
2023-04-03T08:59:48.583Z,76897.91
2023-04-03T09:02:28.338Z,76910.16
2023-04-03T09:04:56.635Z,76946.84
2023-04-03T09:07:34.089Z,76940.72
2023-04-03T09:10:04.131Z,76942.78
2023-04-03T09:12:39.309Z,76946.84
2023-04-03T09:15:17.934Z,76950.94
2023-04-03T09:17:57.802Z,76955.00
2023-04-03T09:20:35.168Z,76948.88
2023-04-03T09:23:07.013Z,76940.72
2023-04-03T09:25:39.642Z,76922.38
2023-04-03T09:28:10.781Z,76912.19
2023-04-03T09:30:40.506Z,76922.38
2023-04-03T09:33:08.932Z,76906.06
2023-04-03T09:35:47.462Z,76914.22
2023-04-03T09:38:23.444Z,76881.59
2023-04-03T09:40:53.772Z,76848.97
2023-04-03T09:43:28.101Z,76867.31
2023-04-03T09:45:58.617Z,76810.22
2023-04-03T09:48:29.073Z,76802.06
2023-04-03T09:51:04.062Z,76804.09
2023-04-03T09:53:37.806Z,76834.69
2023-04-03T09:56:21.796Z,76844.88
2023-04-03T09:58:52.208Z,76828.56
2023-04-03T10:01:28.436Z,76848.97
2023-04-03T10:04:13.348Z,76851.00
2023-04-03T10:06:44.477Z,76867.31
2023-04-03T10:09:23.886Z,76869.34
2023-04-03T10:12:05.702Z,76848.97
2023-04-03T10:14:34.284Z,76861.19
2023-04-03T10:17:19.162Z,76855.09
2023-04-03T10:19:50.495Z,76879.56
2023-04-03T10:22:23.728Z,76885.66
2023-04-03T10:25:01.748Z,76883.63
2023-04-03T10:27:39.015Z,76906.06
2023-04-03T10:30:22.886Z,76924.41
2023-04-03T10:33:01.653Z,76914.22
2023-04-03T10:35:41.536Z,76926.47
2023-04-03T10:38:17.237Z,76912.19
2023-04-03T10:40:54.012Z,76955.00
2023-04-03T10:43:31.364Z,77020.25
2023-04-03T10:46:04.278Z,77040.66
2023-04-03T10:48:51.313Z,77052.91
2023-04-03T10:51:27.566Z,77040.66
2023-04-03T10:54:01.495Z,77020.25
2023-04-03T10:56:36.689Z,76999.88
2023-04-03T10:59:18.423Z,76995.78
2023-04-03T11:01:50.153Z,76995.78
2023-04-03T11:04:23.111Z,76997.84
2023-04-03T11:06:55.730Z,76946.84
2023-04-03T11:09:28.262Z,76926.47
2023-04-03T11:12:02.624Z,76904.03
2023-04-03T11:14:33.333Z,76889.75
2023-04-03T11:17:13.700Z,76848.97
2023-04-03T11:19:48.877Z,76855.09
2023-04-03T11:22:25.832Z,76808.19
2023-04-03T11:25:03.371Z,76797.97
2023-04-03T11:27:39.186Z,76857.13
2023-04-03T11:30:12.089Z,76969.28
2023-04-03T11:32:57.795Z,76983.56
2023-04-03T11:35:28.433Z,76901.97
2023-04-03T11:37:56.594Z,76848.97
2023-04-03T11:40:28.120Z,76836.72
2023-04-03T11:43:04.268Z,76804.09
2023-04-03T11:45:37.972Z,76806.13
2023-04-03T11:48:21.261Z,76810.22
2023-04-03T11:50:53.707Z,76891.78
2023-04-03T11:53:36.527Z,76950.94
2023-04-03T11:56:06.978Z,76928.50
2023-04-03T11:58:35.741Z,76869.34
2023-04-03T12:01:11.146Z,76883.63
2023-04-03T12:04:09.100Z,76918.31
2023-04-03T12:07:15.825Z,76889.75
2023-04-03T12:10:31.066Z,76804.09
2023-04-03T12:13:03.370Z,76818.38
2023-04-03T12:15:55.752Z,76848.97
2023-04-03T12:18:57.833Z,76861.19
2023-04-03T12:21:46.678Z,76800.03
2023-04-03T12:24:28.657Z,76718.47
2023-04-03T12:27:19.616Z,76694.00
2023-04-03T12:29:53.374Z,76706.22
2023-04-03T12:32:36.849Z,76685.81
2023-04-03T12:35:16.364Z,76632.81
2023-04-03T12:38:12.736Z,76579.78
2023-04-03T12:40:48.758Z,76624.66
2023-04-03T12:43:31.546Z,76694.00
2023-04-03T12:46:05.552Z,76740.88
2023-04-03T12:48:39.848Z,76755.16
2023-04-03T12:51:08.336Z,76763.31
2023-04-03T12:53:39.610Z,76755.16
2023-04-03T12:56:26.002Z,76783.72
2023-04-03T12:58:55.458Z,76800.03
2023-04-03T13:01:24.941Z,76828.56
2023-04-03T13:03:56.250Z,76812.25
2023-04-03T13:06:39.677Z,76804.09
2023-04-03T13:09:22.337Z,76781.66
2023-04-03T13:11:51.186Z,76759.25
2023-04-03T13:14:21.508Z,76771.47
2023-04-03T13:16:57.254Z,76742.94
2023-04-03T13:19:28.394Z,76730.69
2023-04-03T13:22:03.830Z,76694.00
2023-04-03T13:24:34.755Z,76759.25
2023-04-03T13:27:03.036Z,76787.78
2023-04-03T13:29:33.268Z,76797.97
2023-04-03T13:32:03.258Z,76763.31
2023-04-03T13:34:37.171Z,76779.63
2023-04-03T13:37:08.333Z,76812.25
2023-04-03T13:39:38.122Z,76800.03
2023-04-03T13:42:18.298Z,76771.47
2023-04-03T13:44:46.105Z,76783.72
2023-04-03T13:47:20.588Z,76744.97
2023-04-03T13:50:01.633Z,76673.59
2023-04-03T13:52:36.663Z,76689.91
2023-04-03T13:55:24.624Z,76712.34
2023-04-03T13:57:56.966Z,76716.41
2023-04-03T14:00:39.485Z,76702.16
2023-04-03T14:03:20.840Z,76663.41
2023-04-03T14:05:48.643Z,76602.22
2023-04-03T14:08:22.124Z,76651.16
2023-04-03T14:10:54.744Z,76665.44
2023-04-03T14:13:23.174Z,76661.38
2023-04-03T14:15:51.912Z,76706.22
2023-04-03T14:18:22.322Z,76738.84
2023-04-03T14:20:53.254Z,76714.38
2023-04-03T14:23:22.345Z,76734.78
2023-04-03T14:25:50.725Z,76755.16
2023-04-03T14:28:21.805Z,76771.47
2023-04-03T14:30:50.958Z,76742.94
2023-04-03T14:33:22.396Z,76740.88
2023-04-03T14:35:50.665Z,76702.16
2023-04-03T14:38:28.616Z,76683.78
2023-04-03T14:41:00.918Z,76691.94
2023-04-03T14:43:34.575Z,76706.22
2023-04-03T14:46:02.456Z,76700.09
2023-04-03T14:48:31.927Z,76720.50
2023-04-03T14:51:05.836Z,76694.00
2023-04-03T14:53:39.175Z,76649.13
2023-04-03T14:56:14.222Z,76673.59
2023-04-03T14:58:42.312Z,76726.63
2023-04-03T15:01:12.805Z,76749.03
2023-04-03T15:03:40.684Z,76759.25
2023-04-03T15:06:10.719Z,76767.41
2023-04-03T15:08:42.049Z,76771.47
2023-04-03T15:11:10.788Z,76810.22
2023-04-03T15:13:39.180Z,76800.03
2023-04-03T15:16:08.240Z,76779.63
2023-04-03T15:18:40.114Z,76800.03
2023-04-03T15:21:08.024Z,76804.09
2023-04-03T15:23:35.798Z,76822.47
2023-04-03T15:26:05.539Z,76787.78
2023-04-03T15:28:36.143Z,76814.31
2023-04-03T15:31:04.942Z,76793.91
2023-04-03T15:33:33.500Z,76851.00
2023-04-03T15:36:07.114Z,76840.81
2023-04-03T15:38:40.069Z,76816.34
2023-04-03T15:41:09.223Z,76865.28
2023-04-03T15:43:37.064Z,76844.88
2023-04-03T15:46:06.298Z,76865.28
2023-04-03T15:48:34.193Z,76875.47
2023-04-03T15:51:02.337Z,76869.34
2023-04-03T15:53:30.178Z,76881.59
2023-04-03T15:55:57.943Z,76881.59
2023-04-03T15:58:27.472Z,76883.63
2023-04-03T16:00:55.534Z,76899.94
2023-04-03T16:03:25.416Z,76897.91
2023-04-03T16:05:53.525Z,76885.66
2023-04-03T16:08:21.690Z,76879.56
2023-04-03T16:10:49.466Z,76889.75
2023-04-03T16:13:17.265Z,76871.41
2023-04-03T16:15:46.475Z,76871.41
2023-04-03T16:18:14.959Z,76897.91
2023-04-03T16:20:44.673Z,76904.03
2023-04-03T16:23:13.749Z,76881.59
2023-04-03T16:25:46.709Z,76906.06
2023-04-03T16:28:15.535Z,76946.84
2023-04-03T16:30:44.073Z,76948.88
2023-04-03T16:33:13.919Z,76967.25
2023-04-03T16:35:43.023Z,77008.03
2023-04-03T16:38:11.086Z,77014.16
2023-04-03T16:40:38.883Z,77008.03
2023-04-03T16:43:06.842Z,77012.09
2023-04-03T16:45:34.669Z,77018.22
2023-04-03T16:48:02.425Z,76995.78
2023-04-03T16:50:31.662Z,77028.41
2023-04-03T16:52:59.525Z,77052.91
2023-04-03T16:55:27.274Z,77083.50
2023-04-03T16:57:55.431Z,77030.47
2023-04-03T17:00:23.509Z,77052.91
2023-04-03T17:02:51.302Z,77056.97
2023-04-03T17:05:19.388Z,77052.91
2023-04-03T17:07:48.470Z,77063.09
2023-04-03T17:10:16.522Z,77065.13
2023-04-03T17:12:44.348Z,77056.97
2023-04-03T17:15:12.821Z,77085.53
2023-04-03T17:17:41.092Z,77103.88
2023-04-03T17:20:11.260Z,77124.28
2023-04-03T17:22:39.056Z,77126.31
2023-04-03T17:25:08.804Z,77122.22
2023-04-03T17:27:36.608Z,77148.75
2023-04-03T17:30:05.163Z,77160.97
2023-04-03T17:32:33.075Z,77183.41
2023-04-03T17:35:00.979Z,77207.88
2023-04-03T17:37:28.727Z,77224.22
2023-04-03T17:39:56.522Z,77220.13
2023-04-03T17:42:25.888Z,77224.22
2023-04-03T17:44:53.657Z,77226.25
2023-04-03T17:47:21.394Z,77244.59
2023-04-03T17:49:49.243Z,77252.75
2023-04-03T17:52:17.121Z,77256.84
2023-04-03T17:54:45.032Z,77281.31
2023-04-03T17:57:12.858Z,77277.22
2023-04-03T17:59:41.929Z,77299.66
2023-04-03T18:02:09.688Z,77315.97
2023-04-03T18:04:37.465Z,77303.75
2023-04-03T18:07:09.512Z,77293.53
2023-04-03T18:09:38.071Z,77309.88
2023-04-03T18:12:08.125Z,77313.94
2023-04-03T18:14:37.291Z,77297.63
2023-04-03T18:17:06.500Z,77305.78
2023-04-03T18:19:35.026Z,77318.03
2023-04-03T18:22:05.817Z,77305.78
2023-04-03T18:24:34.773Z,77318.03
2023-04-03T18:27:07.250Z,77336.38
2023-04-03T18:29:37.643Z,77324.13
2023-04-03T18:32:08.763Z,77334.34
2023-04-03T18:34:36.704Z,77309.88
2023-04-03T18:37:05.924Z,77334.34
2023-04-03T18:39:33.797Z,77320.06
2023-04-03T18:42:07.653Z,77267.03
2023-04-03T18:44:37.307Z,77256.84
2023-04-03T18:47:06.570Z,77230.31
2023-04-03T18:49:35.613Z,77244.59
2023-04-03T18:52:04.484Z,77269.06
2023-04-03T18:54:32.463Z,77285.38
2023-04-03T18:57:00.399Z,77309.88
2023-04-03T18:59:28.300Z,77330.25
2023-04-03T19:01:56.443Z,77338.41
2023-04-03T19:04:25.869Z,77338.41
2023-04-03T19:06:54.102Z,77330.25
2023-04-03T19:09:22.247Z,77332.31
2023-04-03T19:11:50.036Z,77328.22
2023-04-03T19:14:17.831Z,77326.19
2023-04-03T19:16:45.793Z,77346.56
2023-04-03T19:19:13.754Z,77326.19
2023-04-03T19:21:42.975Z,77326.19
2023-04-03T19:24:11.763Z,77320.06
2023-04-03T19:26:39.873Z,77330.25
2023-04-03T19:29:08.057Z,77354.72
2023-04-03T19:31:37.359Z,77350.66
2023-04-03T19:34:06.345Z,77362.88
2023-04-03T19:36:35.226Z,77371.06
2023-04-03T19:39:05.480Z,77379.22
2023-04-03T19:41:36.620Z,77362.88
2023-04-03T19:44:06.584Z,77342.50
2023-04-03T19:46:35.567Z,77330.25
2023-04-03T19:49:03.598Z,77324.13
2023-04-03T19:51:31.598Z,77326.19
2023-04-03T19:53:59.400Z,77330.25
2023-04-03T19:56:28.488Z,77346.56
2023-04-03T19:58:56.801Z,77350.66
2023-04-03T20:01:26.969Z,77330.25
2023-04-03T20:03:54.873Z,77354.72
2023-04-03T20:06:22.710Z,77371.06
2023-04-03T20:08:50.521Z,77348.63
2023-04-03T20:11:18.404Z,77342.50
2023-04-03T20:13:49.870Z,77326.19
2023-04-03T20:16:18.233Z,77342.50
2023-04-03T20:18:47.449Z,77371.06
2023-04-03T20:21:15.319Z,77387.38
2023-04-03T20:23:43.099Z,77395.53
2023-04-03T20:26:15.260Z,77366.97
2023-04-03T20:28:43.811Z,77334.34
2023-04-03T20:31:14.172Z,77350.66
2023-04-03T20:33:41.970Z,77346.56
2023-04-03T20:36:10.134Z,77328.22
2023-04-03T20:38:37.951Z,77350.66
2023-04-03T20:41:05.882Z,77346.56
2023-04-03T20:43:34.227Z,77375.13
2023-04-03T20:46:02.387Z,77364.94
2023-04-03T20:48:32.385Z,77366.97
2023-04-03T20:51:00.217Z,77375.13
2023-04-03T20:53:28.468Z,77379.22
2023-04-03T20:55:59.833Z,77387.38
2023-04-03T20:58:29.699Z,77383.28
2023-04-03T21:00:57.707Z,77395.53
2023-04-03T21:03:26.258Z,77422.03
2023-04-03T21:06:00.525Z,77420.00
2023-04-03T21:09:06.045Z,77420.00
2023-04-03T21:12:11.932Z,77413.88
2023-04-03T21:15:17.471Z,77330.25
2023-04-03T21:18:15.592Z,77387.38
2023-04-03T21:20:47.356Z,77391.44
2023-04-03T21:23:15.720Z,77371.06
2023-04-03T21:25:43.668Z,77375.13
2023-04-03T21:28:11.427Z,77379.22
2023-04-03T21:30:39.222Z,77391.44
2023-04-03T21:33:09.418Z,77391.44
2023-04-03T21:35:38.780Z,77379.22
2023-04-03T21:38:06.518Z,77362.88
2023-04-03T21:40:34.309Z,77377.16
2023-04-03T21:43:02.484Z,77403.69
2023-04-03T21:45:30.359Z,77422.03
2023-04-03T21:47:59.144Z,77417.97
2023-04-03T21:50:28.391Z,77407.75
2023-04-03T21:52:56.482Z,77420.00
2023-04-03T21:55:24.187Z,77444.47
2023-04-03T21:57:53.681Z,77434.28
2023-04-03T22:00:22.878Z,77405.72
2023-04-03T22:02:55.234Z,77395.53
2023-04-03T22:05:32.702Z,77377.16
2023-04-03T22:08:00.574Z,77375.13
2023-04-03T22:10:28.375Z,77375.13
2023-04-03T22:12:56.176Z,77371.06
2023-04-03T22:15:24.045Z,77371.06
2023-04-03T22:17:51.786Z,77391.44
2023-04-03T22:20:19.609Z,77399.59
2023-04-03T22:22:50.595Z,77387.38
2023-04-03T22:25:18.310Z,77379.22
2023-04-03T22:27:46.137Z,77391.44
2023-04-03T22:30:14.743Z,77383.28
2023-04-03T22:32:42.552Z,77399.59
2023-04-03T22:35:10.753Z,77379.22
2023-04-03T22:37:38.486Z,77375.13
2023-04-03T22:40:09.143Z,77405.72
2023-04-03T22:42:37.190Z,77407.75
2023-04-03T22:45:05.482Z,77420.00
2023-04-03T22:47:33.285Z,77420.00
2023-04-03T22:50:01.087Z,77428.16
2023-04-03T22:52:28.804Z,77420.00
2023-04-03T22:54:58.012Z,77391.44
2023-04-03T22:57:30.439Z,77350.66
2023-04-03T22:59:58.195Z,77371.06
2023-04-03T23:02:26.038Z,77350.66
2023-04-03T23:04:54.161Z,77334.34
2023-04-03T23:07:22.769Z,77332.31
2023-04-03T23:09:50.572Z,77326.19
2023-04-03T23:12:18.463Z,77332.31
2023-04-03T23:14:47.608Z,77338.41
2023-04-03T23:17:15.476Z,77373.09
2023-04-03T23:19:43.577Z,77371.06
2023-04-03T23:22:11.878Z,77358.81
2023-04-03T23:24:39.820Z,77346.56
2023-04-03T23:27:07.682Z,77350.66
2023-04-03T23:29:35.487Z,77350.66
2023-04-03T23:32:04.714Z,77354.72
2023-04-03T23:34:32.589Z,77366.97
2023-04-03T23:37:00.350Z,77366.97
2023-04-03T23:39:28.238Z,77360.84
2023-04-03T23:41:56.078Z,77366.97
2023-04-03T23:44:24.019Z,77369.00
2023-04-03T23:46:51.794Z,77387.38
2023-04-03T23:49:21.007Z,77401.66
2023-04-03T23:51:49.048Z,77383.28
2023-04-03T23:54:16.782Z,77407.75
2023-04-03T23:56:44.546Z,77403.69
2023-04-03T23:59:12.379Z,77403.69
